sensor_id;sensor_type;location;lat;lon;timestamp;P1;durP1;ratioP1;P2;durP2;ratioP2
15398;SDS011;7797;51.428;6.756;2024-01-10T00:01:54;6.60;;;4.10;;
15398;SDS011;7797;51.428;6.756;2024-01-10T00:04:21;6.43;;;4.40;;
15398;SDS011;7797;51.428;6.756;2024-01-10T00:06:48;4.83;;;3.70;;
15398;SDS011;7797;51.428;6.756;2024-01-10T00:09:15;6.30;;;4.30;;
15398;SDS011;7797;51.428;6.756;2024-01-10T00:11:42;7.97;;;4.60;;
15398;SDS011;7797;51.428;6.756;2024-01-10T00:14:09;7.13;;;4.37;;
15398;SDS011;7797;51.428;6.756;2024-01-10T00:16:36;6.47;;;4.40;;
15398;SDS011;7797;51.428;6.756;2024-01-10T00:19:03;5.23;;;4.00;;
15398;SDS011;7797;51.428;6.756;2024-01-10T00:21:30;6.50;;;4.33;;
15398;SDS011;7797;51.428;6.756;2024-01-10T00:23:57;4.53;;;3.50;;
15398;SDS011;7797;51.428;6.756;2024-01-10T00:26:24;7.83;;;4.50;;
15398;SDS011;7797;51.428;6.756;2024-01-10T00:28:50;5.73;;;4.23;;
15398;SDS011;7797;51.428;6.756;2024-01-10T00:31:17;6.33;;;3.97;;
15398;SDS011;7797;51.428;6.756;2024-01-10T00:33:44;6.57;;;4.10;;
15398;SDS011;7797;51.428;6.756;2024-01-10T00:36:11;5.27;;;4.13;;
15398;SDS011;7797;51.428;6.756;2024-01-10T00:38:38;6.17;;;4.20;;
15398;SDS011;7797;51.428;6.756;2024-01-10T00:41:05;6.00;;;3.83;;
15398;SDS011;7797;51.428;6.756;2024-01-10T00:43:32;8.13;;;4.17;;
15398;SDS011;7797;51.428;6.756;2024-01-10T00:45:59;5.70;;;4.00;;
15398;SDS011;7797;51.428;6.756;2024-01-10T00:48:25;4.70;;;3.57;;
15398;SDS011;7797;51.428;6.756;2024-01-10T00:50:52;8.37;;;4.07;;
15398;SDS011;7797;51.428;6.756;2024-01-10T00:53:19;6.43;;;4.20;;
15398;SDS011;7797;51.428;6.756;2024-01-10T00:55:49;5.70;;;4.20;;
15398;SDS011;7797;51.428;6.756;2024-01-10T00:58:15;5.90;;;4.20;;
15398;SDS011;7797;51.428;6.756;2024-01-10T01:00:42;6.63;;;4.10;;
15398;SDS011;7797;51.428;6.756;2024-01-10T01:03:09;6.90;;;4.10;;
15398;SDS011;7797;51.428;6.756;2024-01-10T01:05:36;6.20;;;4.23;;
15398;SDS011;7797;51.428;6.756;2024-01-10T01:08:03;6.63;;;4.40;;
15398;SDS011;7797;51.428;6.756;2024-01-10T01:10:30;4.87;;;4.00;;
15398;SDS011;7797;51.428;6.756;2024-01-10T01:12:59;4.07;;;3.67;;
15398;SDS011;7797;51.428;6.756;2024-01-10T01:15:26;6.50;;;4.07;;
15398;SDS011;7797;51.428;6.756;2024-01-10T01:17:53;5.83;;;4.27;;
15398;SDS011;7797;51.428;6.756;2024-01-10T01:20:20;5.77;;;4.03;;
15398;SDS011;7797;51.428;6.756;2024-01-10T01:22:47;6.97;;;4.23;;
15398;SDS011;7797;51.428;6.756;2024-01-10T01:25:13;7.57;;;4.00;;
15398;SDS011;7797;51.428;6.756;2024-01-10T01:27:40;5.93;;;3.93;;
15398;SDS011;7797;51.428;6.756;2024-01-10T01:30:07;5.93;;;4.30;;
15398;SDS011;7797;51.428;6.756;2024-01-10T01:32:35;5.17;;;4.30;;
15398;SDS011;7797;51.428;6.756;2024-01-10T01:35:02;5.97;;;4.07;;
15398;SDS011;7797;51.428;6.756;2024-01-10T01:37:29;5.43;;;4.07;;
15398;SDS011;7797;51.428;6.756;2024-01-10T01:39:56;6.93;;;4.70;;
15398;SDS011;7797;51.428;6.756;2024-01-10T01:42:22;5.77;;;4.27;;
15398;SDS011;7797;51.428;6.756;2024-01-10T01:44:50;5.50;;;4.00;;
15398;SDS011;7797;51.428;6.756;2024-01-10T01:47:17;7.97;;;4.57;;
15398;SDS011;7797;51.428;6.756;2024-01-10T01:49:44;6.90;;;4.40;;
15398;SDS011;7797;51.428;6.756;2024-01-10T01:52:11;5.50;;;4.07;;
15398;SDS011;7797;51.428;6.756;2024-01-10T01:54:38;7.70;;;4.43;;
15398;SDS011;7797;51.428;6.756;2024-01-10T01:57:06;6.83;;;4.40;;
15398;SDS011;7797;51.428;6.756;2024-01-10T01:59:33;8.57;;;4.40;;
15398;SDS011;7797;51.428;6.756;2024-01-10T02:02:00;5.63;;;4.17;;
15398;SDS011;7797;51.428;6.756;2024-01-10T02:04:30;5.77;;;4.20;;
15398;SDS011;7797;51.428;6.756;2024-01-10T02:06:57;7.10;;;4.30;;
15398;SDS011;7797;51.428;6.756;2024-01-10T02:09:24;8.23;;;4.67;;
15398;SDS011;7797;51.428;6.756;2024-01-10T02:11:50;7.90;;;4.30;;
15398;SDS011;7797;51.428;6.756;2024-01-10T02:14:17;6.70;;;4.53;;
15398;SDS011;7797;51.428;6.756;2024-01-10T02:16:44;7.13;;;4.10;;
15398;SDS011;7797;51.428;6.756;2024-01-10T02:19:21;6.97;;;4.67;;
15398;SDS011;7797;51.428;6.756;2024-01-10T02:21:48;6.83;;;4.80;;
15398;SDS011;7797;51.428;6.756;2024-01-10T02:24:18;6.20;;;4.07;;
15398;SDS011;7797;51.428;6.756;2024-01-10T02:26:44;5.70;;;4.37;;
15398;SDS011;7797;51.428;6.756;2024-01-10T02:29:11;8.40;;;4.80;;
15398;SDS011;7797;51.428;6.756;2024-01-10T02:31:38;5.73;;;4.30;;
15398;SDS011;7797;51.428;6.756;2024-01-10T02:34:05;8.77;;;4.43;;
15398;SDS011;7797;51.428;6.756;2024-01-10T02:36:32;5.83;;;4.20;;
15398;SDS011;7797;51.428;6.756;2024-01-10T02:38:58;7.03;;;4.37;;
15398;SDS011;7797;51.428;6.756;2024-01-10T02:41:25;7.23;;;4.60;;
15398;SDS011;7797;51.428;6.756;2024-01-10T02:43:54;7.03;;;4.70;;
15398;SDS011;7797;51.428;6.756;2024-01-10T02:46:25;6.77;;;4.33;;
15398;SDS011;7797;51.428;6.756;2024-01-10T02:48:54;5.67;;;4.43;;
15398;SDS011;7797;51.428;6.756;2024-01-10T02:51:22;7.67;;;4.33;;
15398;SDS011;7797;51.428;6.756;2024-01-10T02:53:50;7.30;;;4.27;;
15398;SDS011;7797;51.428;6.756;2024-01-10T02:56:17;7.10;;;4.40;;
15398;SDS011;7797;51.428;6.756;2024-01-10T02:58:43;5.70;;;4.43;;
15398;SDS011;7797;51.428;6.756;2024-01-10T03:01:10;7.97;;;4.83;;
15398;SDS011;7797;51.428;6.756;2024-01-10T03:03:37;7.73;;;4.73;;
15398;SDS011;7797;51.428;6.756;2024-01-10T03:06:04;9.10;;;4.93;;
15398;SDS011;7797;51.428;6.756;2024-01-10T03:08:31;7.00;;;4.20;;
15398;SDS011;7797;51.428;6.756;2024-01-10T03:10:58;7.27;;;4.30;;
15398;SDS011;7797;51.428;6.756;2024-01-10T03:13:25;7.50;;;4.53;;
15398;SDS011;7797;51.428;6.756;2024-01-10T03:15:52;6.50;;;4.10;;
15398;SDS011;7797;51.428;6.756;2024-01-10T03:18:18;7.23;;;4.40;;
15398;SDS011;7797;51.428;6.756;2024-01-10T03:20:45;7.30;;;4.53;;
15398;SDS011;7797;51.428;6.756;2024-01-10T03:23:12;8.20;;;5.00;;
15398;SDS011;7797;51.428;6.756;2024-01-10T03:25:39;7.47;;;4.70;;
15398;SDS011;7797;51.428;6.756;2024-01-10T03:28:06;8.37;;;5.03;;
15398;SDS011;7797;51.428;6.756;2024-01-10T03:30:33;6.07;;;4.80;;
15398;SDS011;7797;51.428;6.756;2024-01-10T03:33:00;7.67;;;4.60;;
15398;SDS011;7797;51.428;6.756;2024-01-10T03:35:27;7.00;;;4.40;;
15398;SDS011;7797;51.428;6.756;2024-01-10T03:37:53;6.47;;;4.43;;
15398;SDS011;7797;51.428;6.756;2024-01-10T03:40:21;7.60;;;4.53;;
15398;SDS011;7797;51.428;6.756;2024-01-10T03:42:48;6.97;;;4.53;;
15398;SDS011;7797;51.428;6.756;2024-01-10T03:45:15;8.30;;;4.87;;
15398;SDS011;7797;51.428;6.756;2024-01-10T03:47:47;5.53;;;4.27;;
15398;SDS011;7797;51.428;6.756;2024-01-10T03:50:17;7.23;;;4.37;;
15398;SDS011;7797;51.428;6.756;2024-01-10T03:52:45;7.43;;;4.27;;
15398;SDS011;7797;51.428;6.756;2024-01-10T03:55:13;6.27;;;4.23;;
15398;SDS011;7797;51.428;6.756;2024-01-10T03:57:39;6.57;;;4.47;;
15398;SDS011;7797;51.428;6.756;2024-01-10T04:00:06;6.53;;;5.07;;
15398;SDS011;7797;51.428;6.756;2024-01-10T04:02:33;8.20;;;4.60;;
15398;SDS011;7797;51.428;6.756;2024-01-10T04:05:05;5.37;;;4.63;;
15398;SDS011;7797;51.428;6.756;2024-01-10T04:07:33;6.70;;;4.57;;
15398;SDS011;7797;51.428;6.756;2024-01-10T04:10:00;7.83;;;4.47;;
15398;SDS011;7797;51.428;6.756;2024-01-10T04:12:26;7.63;;;4.53;;
15398;SDS011;7797;51.428;6.756;2024-01-10T04:14:53;7.03;;;4.70;;
15398;SDS011;7797;51.428;6.756;2024-01-10T04:17:20;8.40;;;5.10;;
15398;SDS011;7797;51.428;6.756;2024-01-10T04:19:47;7.23;;;5.07;;
15398;SDS011;7797;51.428;6.756;2024-01-10T04:22:14;7.87;;;4.57;;
15398;SDS011;7797;51.428;6.756;2024-01-10T04:24:41;9.07;;;5.17;;
15398;SDS011;7797;51.428;6.756;2024-01-10T04:27:08;7.83;;;4.53;;
15398;SDS011;7797;51.428;6.756;2024-01-10T04:29:36;7.57;;;4.70;;
15398;SDS011;7797;51.428;6.756;2024-01-10T04:32:03;7.63;;;4.83;;
15398;SDS011;7797;51.428;6.756;2024-01-10T04:34:31;8.70;;;5.40;;
15398;SDS011;7797;51.428;6.756;2024-01-10T04:36:57;6.97;;;4.90;;
15398;SDS011;7797;51.428;6.756;2024-01-10T04:39:24;8.13;;;5.07;;
15398;SDS011;7797;51.428;6.756;2024-01-10T04:41:51;7.90;;;4.73;;
15398;SDS011;7797;51.428;6.756;2024-01-10T04:44:18;8.30;;;5.30;;
15398;SDS011;7797;51.428;6.756;2024-01-10T04:46:45;8.63;;;5.17;;
15398;SDS011;7797;51.428;6.756;2024-01-10T04:49:11;6.43;;;4.60;;
15398;SDS011;7797;51.428;6.756;2024-01-10T04:51:38;7.77;;;4.77;;
15398;SDS011;7797;51.428;6.756;2024-01-10T04:54:05;8.27;;;5.03;;
15398;SDS011;7797;51.428;6.756;2024-01-10T04:56:32;7.00;;;4.97;;
15398;SDS011;7797;51.428;6.756;2024-01-10T04:58:59;8.87;;;4.73;;
15398;SDS011;7797;51.428;6.756;2024-01-10T05:01:26;5.77;;;4.57;;
15398;SDS011;7797;51.428;6.756;2024-01-10T05:03:52;7.77;;;4.43;;
15398;SDS011;7797;51.428;6.756;2024-01-10T05:06:19;9.27;;;5.10;;
15398;SDS011;7797;51.428;6.756;2024-01-10T05:08:46;7.40;;;5.10;;
15398;SDS011;7797;51.428;6.756;2024-01-10T05:11:13;10.90;;;5.23;;
15398;SDS011;7797;51.428;6.756;2024-01-10T05:13:41;8.27;;;4.27;;
15398;SDS011;7797;51.428;6.756;2024-01-10T05:16:08;10.17;;;5.00;;
15398;SDS011;7797;51.428;6.756;2024-01-10T05:18:35;7.83;;;5.30;;
15398;SDS011;7797;51.428;6.756;2024-01-10T05:21:02;6.80;;;4.70;;
15398;SDS011;7797;51.428;6.756;2024-01-10T05:23:30;8.23;;;5.13;;
15398;SDS011;7797;51.428;6.756;2024-01-10T05:25:57;8.80;;;5.50;;
15398;SDS011;7797;51.428;6.756;2024-01-10T05:28:24;8.50;;;5.03;;
15398;SDS011;7797;51.428;6.756;2024-01-10T05:30:51;8.90;;;5.10;;
15398;SDS011;7797;51.428;6.756;2024-01-10T05:33:18;8.77;;;5.00;;
15398;SDS011;7797;51.428;6.756;2024-01-10T05:35:44;10.03;;;5.13;;
15398;SDS011;7797;51.428;6.756;2024-01-10T05:38:11;8.93;;;5.13;;
15398;SDS011;7797;51.428;6.756;2024-01-10T05:40:38;7.33;;;4.77;;
15398;SDS011;7797;51.428;6.756;2024-01-10T05:43:05;9.07;;;5.23;;
15398;SDS011;7797;51.428;6.756;2024-01-10T05:45:33;7.80;;;5.00;;
15398;SDS011;7797;51.428;6.756;2024-01-10T05:48:00;8.47;;;5.40;;
15398;SDS011;7797;51.428;6.756;2024-01-10T05:50:27;8.10;;;5.20;;
15398;SDS011;7797;51.428;6.756;2024-01-10T05:52:54;8.47;;;5.33;;
15398;SDS011;7797;51.428;6.756;2024-01-10T05:55:21;8.80;;;5.07;;
15398;SDS011;7797;51.428;6.756;2024-01-10T05:57:50;9.23;;;5.13;;
15398;SDS011;7797;51.428;6.756;2024-01-10T06:00:16;8.70;;;4.90;;
15398;SDS011;7797;51.428;6.756;2024-01-10T06:02:43;9.57;;;5.40;;
15398;SDS011;7797;51.428;6.756;2024-01-10T06:05:10;7.97;;;4.87;;
15398;SDS011;7797;51.428;6.756;2024-01-10T06:07:38;7.27;;;5.20;;
15398;SDS011;7797;51.428;6.756;2024-01-10T06:10:05;9.93;;;5.53;;
15398;SDS011;7797;51.428;6.756;2024-01-10T06:12:33;7.03;;;4.90;;
15398;SDS011;7797;51.428;6.756;2024-01-10T06:15:00;10.13;;;5.40;;
15398;SDS011;7797;51.428;6.756;2024-01-10T06:17:26;8.87;;;5.70;;
15398;SDS011;7797;51.428;6.756;2024-01-10T06:19:53;10.73;;;5.57;;
15398;SDS011;7797;51.428;6.756;2024-01-10T06:22:20;7.57;;;5.10;;
15398;SDS011;7797;51.428;6.756;2024-01-10T06:24:58;11.27;;;5.47;;
15398;SDS011;7797;51.428;6.756;2024-01-10T06:27:24;6.97;;;5.03;;
15398;SDS011;7797;51.428;6.756;2024-01-10T06:29:51;9.33;;;5.53;;
15398;SDS011;7797;51.428;6.756;2024-01-10T06:32:18;8.50;;;5.30;;
15398;SDS011;7797;51.428;6.756;2024-01-10T06:34:45;7.97;;;4.90;;
15398;SDS011;7797;51.428;6.756;2024-01-10T06:37:12;9.00;;;5.63;;
15398;SDS011;7797;51.428;6.756;2024-01-10T06:39:39;6.97;;;4.73;;
15398;SDS011;7797;51.428;6.756;2024-01-10T06:42:07;9.63;;;5.20;;
15398;SDS011;7797;51.428;6.756;2024-01-10T06:44:37;8.00;;;5.10;;
15398;SDS011;7797;51.428;6.756;2024-01-10T06:47:04;9.37;;;5.60;;
15398;SDS011;7797;51.428;6.756;2024-01-10T06:49:31;9.07;;;4.90;;
15398;SDS011;7797;51.428;6.756;2024-01-10T06:51:58;10.10;;;5.50;;
15398;SDS011;7797;51.428;6.756;2024-01-10T06:54:26;8.33;;;5.30;;
15398;SDS011;7797;51.428;6.756;2024-01-10T06:56:53;7.60;;;5.47;;
15398;SDS011;7797;51.428;6.756;2024-01-10T06:59:20;9.73;;;5.17;;
15398;SDS011;7797;51.428;6.756;2024-01-10T07:01:50;9.20;;;5.60;;
15398;SDS011;7797;51.428;6.756;2024-01-10T07:04:18;9.53;;;5.67;;
15398;SDS011;7797;51.428;6.756;2024-01-10T07:06:50;8.90;;;5.57;;
15398;SDS011;7797;51.428;6.756;2024-01-10T07:09:17;8.30;;;5.50;;
15398;SDS011;7797;51.428;6.756;2024-01-10T07:11:46;11.93;;;6.23;;
15398;SDS011;7797;51.428;6.756;2024-01-10T07:14:16;8.83;;;5.80;;
15398;SDS011;7797;51.428;6.756;2024-01-10T07:16:43;9.60;;;5.40;;
15398;SDS011;7797;51.428;6.756;2024-01-10T07:19:13;8.03;;;5.43;;
15398;SDS011;7797;51.428;6.756;2024-01-10T07:21:40;9.47;;;6.17;;
15398;SDS011;7797;51.428;6.756;2024-01-10T07:24:08;11.03;;;5.90;;
15398;SDS011;7797;51.428;6.756;2024-01-10T07:26:38;6.97;;;5.30;;
15398;SDS011;7797;51.428;6.756;2024-01-10T07:29:05;10.50;;;6.00;;
15398;SDS011;7797;51.428;6.756;2024-01-10T07:31:35;10.30;;;6.03;;
15398;SDS011;7797;51.428;6.756;2024-01-10T07:34:02;10.17;;;5.50;;
15398;SDS011;7797;51.428;6.756;2024-01-10T07:36:32;11.33;;;6.67;;
15398;SDS011;7797;51.428;6.756;2024-01-10T07:39:02;10.03;;;5.83;;
15398;SDS011;7797;51.428;6.756;2024-01-10T07:41:30;12.20;;;6.10;;
15398;SDS011;7797;51.428;6.756;2024-01-10T07:43:57;13.73;;;5.60;;
15398;SDS011;7797;51.428;6.756;2024-01-10T07:46:24;10.57;;;6.17;;
15398;SDS011;7797;51.428;6.756;2024-01-10T07:48:51;11.40;;;6.60;;
15398;SDS011;7797;51.428;6.756;2024-01-10T07:51:20;12.83;;;6.20;;
15398;SDS011;7797;51.428;6.756;2024-01-10T07:53:48;11.20;;;6.47;;
15398;SDS011;7797;51.428;6.756;2024-01-10T07:56:15;11.50;;;5.87;;
15398;SDS011;7797;51.428;6.756;2024-01-10T07:58:42;12.23;;;6.70;;
15398;SDS011;7797;51.428;6.756;2024-01-10T08:01:09;12.00;;;6.60;;
15398;SDS011;7797;51.428;6.756;2024-01-10T08:03:38;10.80;;;6.20;;
15398;SDS011;7797;51.428;6.756;2024-01-10T08:06:06;8.27;;;5.53;;
15398;SDS011;7797;51.428;6.756;2024-01-10T08:08:45;8.87;;;5.97;;
15398;SDS011;7797;51.428;6.756;2024-01-10T08:11:12;11.67;;;6.77;;
15398;SDS011;7797;51.428;6.756;2024-01-10T08:13:39;14.13;;;6.83;;
15398;SDS011;7797;51.428;6.756;2024-01-10T08:16:06;9.37;;;6.20;;
15398;SDS011;7797;51.428;6.756;2024-01-10T08:18:35;14.43;;;6.43;;
15398;SDS011;7797;51.428;6.756;2024-01-10T08:21:02;10.27;;;5.77;;
15398;SDS011;7797;51.428;6.756;2024-01-10T08:23:30;9.87;;;6.07;;
15398;SDS011;7797;51.428;6.756;2024-01-10T08:25:57;12.00;;;6.47;;
15398;SDS011;7797;51.428;6.756;2024-01-10T08:28:27;10.70;;;6.20;;
15398;SDS011;7797;51.428;6.756;2024-01-10T08:30:56;11.17;;;6.80;;
15398;SDS011;7797;51.428;6.756;2024-01-10T08:33:30;10.93;;;6.40;;
15398;SDS011;7797;51.428;6.756;2024-01-10T08:35:57;12.47;;;7.03;;
15398;SDS011;7797;51.428;6.756;2024-01-10T08:38:25;12.37;;;6.77;;
15398;SDS011;7797;51.428;6.756;2024-01-10T08:40:52;14.13;;;6.77;;
15398;SDS011;7797;51.428;6.756;2024-01-10T08:43:19;13.80;;;6.90;;
15398;SDS011;7797;51.428;6.756;2024-01-10T08:45:46;10.37;;;6.67;;
15398;SDS011;7797;51.428;6.756;2024-01-10T08:48:13;11.33;;;6.23;;
15398;SDS011;7797;51.428;6.756;2024-01-10T08:50:40;9.30;;;6.87;;
15398;SDS011;7797;51.428;6.756;2024-01-10T08:53:07;11.43;;;6.83;;
15398;SDS011;7797;51.428;6.756;2024-01-10T08:55:34;16.87;;;6.60;;
15398;SDS011;7797;51.428;6.756;2024-01-10T08:58:03;12.27;;;7.43;;
15398;SDS011;7797;51.428;6.756;2024-01-10T09:00:30;14.33;;;7.77;;
15398;SDS011;7797;51.428;6.756;2024-01-10T09:02:58;13.30;;;7.47;;
15398;SDS011;7797;51.428;6.756;2024-01-10T09:05:25;10.43;;;6.23;;
15398;SDS011;7797;51.428;6.756;2024-01-10T09:07:51;14.23;;;7.27;;
15398;SDS011;7797;51.428;6.756;2024-01-10T09:10:20;12.50;;;7.17;;
15398;SDS011;7797;51.428;6.756;2024-01-10T09:12:49;13.53;;;7.40;;
15398;SDS011;7797;51.428;6.756;2024-01-10T09:15:17;12.77;;;7.53;;
15398;SDS011;7797;51.428;6.756;2024-01-10T09:17:43;12.20;;;6.97;;
15398;SDS011;7797;51.428;6.756;2024-01-10T09:20:11;11.60;;;6.87;;
15398;SDS011;7797;51.428;6.756;2024-01-10T09:22:39;12.57;;;7.83;;
15398;SDS011;7797;51.428;6.756;2024-01-10T09:25:06;12.13;;;7.63;;
15398;SDS011;7797;51.428;6.756;2024-01-10T09:27:33;14.33;;;8.03;;
15398;SDS011;7797;51.428;6.756;2024-01-10T09:30:00;14.10;;;6.80;;
15398;SDS011;7797;51.428;6.756;2024-01-10T09:32:35;12.63;;;7.67;;
15398;SDS011;7797;51.428;6.756;2024-01-10T09:35:03;11.20;;;7.23;;
15398;SDS011;7797;51.428;6.756;2024-01-10T09:37:30;13.23;;;7.57;;
15398;SDS011;7797;51.428;6.756;2024-01-10T09:39:57;14.03;;;7.17;;
15398;SDS011;7797;51.428;6.756;2024-01-10T09:42:23;11.97;;;7.60;;
15398;SDS011;7797;51.428;6.756;2024-01-10T09:44:52;14.67;;;7.30;;
15398;SDS011;7797;51.428;6.756;2024-01-10T09:47:19;13.10;;;7.87;;
15398;SDS011;7797;51.428;6.756;2024-01-10T09:49:47;13.63;;;7.77;;
15398;SDS011;7797;51.428;6.756;2024-01-10T09:52:24;13.60;;;7.67;;
15398;SDS011;7797;51.428;6.756;2024-01-10T09:54:53;15.97;;;8.00;;
15398;SDS011;7797;51.428;6.756;2024-01-10T09:57:22;15.53;;;8.13;;
15398;SDS011;7797;51.428;6.756;2024-01-10T09:59:52;12.40;;;7.83;;
15398;SDS011;7797;51.428;6.756;2024-01-10T10:02:20;13.87;;;8.17;;
15398;SDS011;7797;51.428;6.756;2024-01-10T10:05:09;16.17;;;8.33;;
15398;SDS011;7797;51.428;6.756;2024-01-10T10:07:44;14.40;;;8.03;;
15398;SDS011;7797;51.428;6.756;2024-01-10T10:10:16;15.03;;;8.53;;
15398;SDS011;7797;51.428;6.756;2024-01-10T10:12:47;15.57;;;8.50;;
15398;SDS011;7797;51.428;6.756;2024-01-10T10:15:16;16.40;;;8.23;;
15398;SDS011;7797;51.428;6.756;2024-01-10T10:17:45;14.67;;;8.80;;
15398;SDS011;7797;51.428;6.756;2024-01-10T10:23:03;15.47;;;8.47;;
15398;SDS011;7797;51.428;6.756;2024-01-10T10:25:31;17.57;;;8.90;;
15398;SDS011;7797;51.428;6.756;2024-01-10T10:28:01;15.47;;;8.37;;
15398;SDS011;7797;51.428;6.756;2024-01-10T10:30:29;16.73;;;8.50;;
15398;SDS011;7797;51.428;6.756;2024-01-10T10:32:57;14.60;;;8.40;;
15398;SDS011;7797;51.428;6.756;2024-01-10T10:35:24;18.50;;;8.33;;
15398;SDS011;7797;51.428;6.756;2024-01-10T10:38:07;15.87;;;8.57;;
15398;SDS011;7797;51.428;6.756;2024-01-10T10:40:35;17.40;;;8.50;;
15398;SDS011;7797;51.428;6.756;2024-01-10T10:43:02;16.47;;;8.80;;
15398;SDS011;7797;51.428;6.756;2024-01-10T10:45:30;15.27;;;8.47;;
15398;SDS011;7797;51.428;6.756;2024-01-10T10:48:18;31.80;;;10.53;;
15398;SDS011;7797;51.428;6.756;2024-01-10T10:50:59;69.03;;;14.40;;
15398;SDS011;7797;51.428;6.756;2024-01-10T10:53:29;20.93;;;10.07;;
15398;SDS011;7797;51.428;6.756;2024-01-10T10:55:57;20.37;;;9.53;;
15398;SDS011;7797;51.428;6.756;2024-01-10T10:58:24;14.37;;;8.57;;
15398;SDS011;7797;51.428;6.756;2024-01-10T11:00:51;17.80;;;8.97;;
15398;SDS011;7797;51.428;6.756;2024-01-10T11:03:18;14.43;;;9.30;;
15398;SDS011;7797;51.428;6.756;2024-01-10T11:05:46;18.47;;;9.30;;
15398;SDS011;7797;51.428;6.756;2024-01-10T11:08:14;16.13;;;8.67;;
15398;SDS011;7797;51.428;6.756;2024-01-10T11:10:43;15.90;;;9.90;;
15398;SDS011;7797;51.428;6.756;2024-01-10T11:13:27;13.57;;;8.70;;
15398;SDS011;7797;51.428;6.756;2024-01-10T11:22:39;18.13;;;9.10;;
15398;SDS011;7797;51.428;6.756;2024-01-10T11:24:45;15.87;;;8.90;;
15398;SDS011;7797;51.428;6.756;2024-01-10T11:27:12;18.23;;;9.00;;
15398;SDS011;7797;51.428;6.756;2024-01-10T11:29:41;16.47;;;9.47;;
15398;SDS011;7797;51.428;6.756;2024-01-10T11:32:15;17.57;;;9.57;;
15398;SDS011;7797;51.428;6.756;2024-01-10T11:37:22;18.43;;;9.23;;
15398;SDS011;7797;51.428;6.756;2024-01-10T11:39:50;16.00;;;9.93;;
15398;SDS011;7797;51.428;6.756;2024-01-10T11:42:24;18.23;;;9.00;;
15398;SDS011;7797;51.428;6.756;2024-01-10T11:45:10;19.07;;;10.20;;
15398;SDS011;7797;51.428;6.756;2024-01-10T11:48:02;16.47;;;9.07;;
15398;SDS011;7797;51.428;6.756;2024-01-10T11:50:29;16.10;;;9.10;;
15398;SDS011;7797;51.428;6.756;2024-01-10T11:52:59;15.67;;;9.03;;
15398;SDS011;7797;51.428;6.756;2024-01-10T11:58:18;16.83;;;9.40;;
15398;SDS011;7797;51.428;6.756;2024-01-10T12:00:46;14.87;;;8.83;;
15398;SDS011;7797;51.428;6.756;2024-01-10T12:03:13;18.17;;;9.27;;
15398;SDS011;7797;51.428;6.756;2024-01-10T12:05:41;16.37;;;9.57;;
15398;SDS011;7797;51.428;6.756;2024-01-10T12:08:10;16.93;;;9.73;;
15398;SDS011;7797;51.428;6.756;2024-01-10T12:10:37;15.97;;;9.13;;
15398;SDS011;7797;51.428;6.756;2024-01-10T12:13:04;14.97;;;9.97;;
15398;SDS011;7797;51.428;6.756;2024-01-10T12:15:31;18.80;;;9.67;;
15398;SDS011;7797;51.428;6.756;2024-01-10T12:17:58;19.07;;;10.73;;
15398;SDS011;7797;51.428;6.756;2024-01-10T12:20:24;25.13;;;11.07;;
15398;SDS011;7797;51.428;6.756;2024-01-10T12:22:51;28.37;;;11.00;;
15398;SDS011;7797;51.428;6.756;2024-01-10T12:25:18;21.60;;;11.20;;
15398;SDS011;7797;51.428;6.756;2024-01-10T12:27:46;18.97;;;10.90;;
15398;SDS011;7797;51.428;6.756;2024-01-10T12:30:13;17.60;;;10.23;;
15398;SDS011;7797;51.428;6.756;2024-01-10T12:32:40;17.33;;;10.27;;
15398;SDS011;7797;51.428;6.756;2024-01-10T12:35:07;15.80;;;10.10;;
15398;SDS011;7797;51.428;6.756;2024-01-10T12:37:34;17.90;;;10.20;;
15398;SDS011;7797;51.428;6.756;2024-01-10T12:40:01;15.97;;;10.70;;
15398;SDS011;7797;51.428;6.756;2024-01-10T12:42:36;16.60;;;9.57;;
15398;SDS011;7797;51.428;6.756;2024-01-10T12:45:03;20.23;;;10.47;;
15398;SDS011;7797;51.428;6.756;2024-01-10T12:47:30;17.57;;;10.17;;
15398;SDS011;7797;51.428;6.756;2024-01-10T12:49:58;17.53;;;10.53;;
15398;SDS011;7797;51.428;6.756;2024-01-10T12:52:25;17.80;;;10.40;;
15398;SDS011;7797;51.428;6.756;2024-01-10T12:54:52;17.70;;;10.37;;
15398;SDS011;7797;51.428;6.756;2024-01-10T12:57:19;17.20;;;10.50;;
15398;SDS011;7797;51.428;6.756;2024-01-10T12:59:46;16.33;;;10.03;;
15398;SDS011;7797;51.428;6.756;2024-01-10T13:02:13;17.20;;;10.27;;
15398;SDS011;7797;51.428;6.756;2024-01-10T13:04:40;17.80;;;10.10;;
15398;SDS011;7797;51.428;6.756;2024-01-10T13:07:07;17.03;;;9.97;;
15398;SDS011;7797;51.428;6.756;2024-01-10T13:09:34;17.97;;;10.07;;
15398;SDS011;7797;51.428;6.756;2024-01-10T13:12:06;16.53;;;9.83;;
15398;SDS011;7797;51.428;6.756;2024-01-10T13:14:34;16.27;;;9.93;;
15398;SDS011;7797;51.428;6.756;2024-01-10T13:17:01;18.10;;;9.90;;
15398;SDS011;7797;51.428;6.756;2024-01-10T13:19:28;16.80;;;10.37;;
15398;SDS011;7797;51.428;6.756;2024-01-10T13:21:55;15.00;;;9.80;;
15398;SDS011;7797;51.428;6.756;2024-01-10T13:24:22;20.53;;;10.60;;
15398;SDS011;7797;51.428;6.756;2024-01-10T13:26:49;17.27;;;11.27;;
15398;SDS011;7797;51.428;6.756;2024-01-10T13:29:16;18.33;;;10.30;;
15398;SDS011;7797;51.428;6.756;2024-01-10T13:31:43;25.50;;;11.40;;
15398;SDS011;7797;51.428;6.756;2024-01-10T13:34:10;20.80;;;10.73;;
15398;SDS011;7797;51.428;6.756;2024-01-10T13:36:38;17.40;;;9.40;;
15398;SDS011;7797;51.428;6.756;2024-01-10T13:39:05;14.50;;;9.73;;
15398;SDS011;7797;51.428;6.756;2024-01-10T13:41:32;19.13;;;11.03;;
15398;SDS011;7797;51.428;6.756;2024-01-10T13:43:58;16.50;;;10.00;;
15398;SDS011;7797;51.428;6.756;2024-01-10T13:46:25;17.37;;;10.30;;
15398;SDS011;7797;51.428;6.756;2024-01-10T13:48:52;20.50;;;10.97;;
15398;SDS011;7797;51.428;6.756;2024-01-10T13:51:19;18.03;;;10.03;;
15398;SDS011;7797;51.428;6.756;2024-01-10T13:53:46;14.70;;;9.10;;
15398;SDS011;7797;51.428;6.756;2024-01-10T13:56:12;16.97;;;9.40;;
15398;SDS011;7797;51.428;6.756;2024-01-10T13:58:39;16.33;;;9.43;;
15398;SDS011;7797;51.428;6.756;2024-01-10T14:01:06;16.47;;;9.37;;
15398;SDS011;7797;51.428;6.756;2024-01-10T14:03:33;16.07;;;9.40;;
15398;SDS011;7797;51.428;6.756;2024-01-10T14:06:00;19.83;;;9.87;;
15398;SDS011;7797;51.428;6.756;2024-01-10T14:08:27;19.03;;;10.00;;
15398;SDS011;7797;51.428;6.756;2024-01-10T14:10:54;22.43;;;10.30;;
15398;SDS011;7797;51.428;6.756;2024-01-10T14:13:39;17.67;;;9.70;;
15398;SDS011;7797;51.428;6.756;2024-01-10T14:16:06;16.07;;;9.00;;
15398;SDS011;7797;51.428;6.756;2024-01-10T14:18:33;18.00;;;9.77;;
15398;SDS011;7797;51.428;6.756;2024-01-10T14:21:01;17.83;;;10.10;;
15398;SDS011;7797;51.428;6.756;2024-01-10T14:23:27;18.00;;;9.13;;
15398;SDS011;7797;51.428;6.756;2024-01-10T14:25:54;16.57;;;9.40;;
15398;SDS011;7797;51.428;6.756;2024-01-10T14:28:21;17.20;;;10.00;;
15398;SDS011;7797;51.428;6.756;2024-01-10T14:30:48;18.47;;;10.53;;
15398;SDS011;7797;51.428;6.756;2024-01-10T14:33:15;14.93;;;9.20;;
15398;SDS011;7797;51.428;6.756;2024-01-10T14:35:42;17.77;;;9.40;;
15398;SDS011;7797;51.428;6.756;2024-01-10T14:38:09;21.97;;;9.93;;
15398;SDS011;7797;51.428;6.756;2024-01-10T14:40:36;19.47;;;10.53;;
15398;SDS011;7797;51.428;6.756;2024-01-10T14:43:03;19.60;;;10.10;;
15398;SDS011;7797;51.428;6.756;2024-01-10T14:45:30;21.10;;;10.30;;
15398;SDS011;7797;51.428;6.756;2024-01-10T14:47:57;19.50;;;10.40;;
15398;SDS011;7797;51.428;6.756;2024-01-10T14:50:24;15.73;;;9.93;;
15398;SDS011;7797;51.428;6.756;2024-01-10T14:52:51;15.13;;;9.30;;
15398;SDS011;7797;51.428;6.756;2024-01-10T14:55:18;16.60;;;9.73;;
15398;SDS011;7797;51.428;6.756;2024-01-10T14:57:44;17.73;;;9.67;;
15398;SDS011;7797;51.428;6.756;2024-01-10T15:00:14;18.37;;;10.40;;
15398;SDS011;7797;51.428;6.756;2024-01-10T15:02:41;18.80;;;10.30;;
15398;SDS011;7797;51.428;6.756;2024-01-10T15:05:10;16.60;;;9.43;;
15398;SDS011;7797;51.428;6.756;2024-01-10T15:07:38;18.00;;;9.60;;
15398;SDS011;7797;51.428;6.756;2024-01-10T15:10:05;16.53;;;9.70;;
15398;SDS011;7797;51.428;6.756;2024-01-10T15:12:33;13.67;;;9.20;;